sensor_id;sensor_type;location;lat;lon;timestamp;temperature;humidity
68274;SHT30;55104;47.356;19.448;2023-03-24T00:01:58;8.59;78.64
68274;SHT30;55104;47.356;19.448;2023-03-24T00:05:01;8.56;78.90
68274;SHT30;55104;47.356;19.448;2023-03-24T00:08:05;8.47;79.16
68274;SHT30;55104;47.356;19.448;2023-03-24T00:11:09;8.45;79.33
68274;SHT30;55104;47.356;19.448;2023-03-24T00:14:12;8.39;79.14
68274;SHT30;55104;47.356;19.448;2023-03-24T00:17:14;8.35;78.94
68274;SHT30;55104;47.356;19.448;2023-03-24T00:20:19;8.29;79.25
68274;SHT30;55104;47.356;19.448;2023-03-24T00:23:27;8.26;79.66
68274;SHT30;55104;47.356;19.448;2023-03-24T00:26:37;8.21;79.90
68274;SHT30;55104;47.356;19.448;2023-03-24T00:29:40;8.15;79.81
68274;SHT30;55104;47.356;19.448;2023-03-24T00:32:43;8.13;80.14
68274;SHT30;55104;47.356;19.448;2023-03-24T00:35:45;8.13;80.17
68274;SHT30;55104;47.356;19.448;2023-03-24T00:38:49;8.13;80.28
68274;SHT30;55104;47.356;19.448;2023-03-24T00:41:51;8.13;80.08
68274;SHT30;55104;47.356;19.448;2023-03-24T00:44:53;8.11;80.06
68274;SHT30;55104;47.356;19.448;2023-03-24T00:47:55;8.02;80.23
68274;SHT30;55104;47.356;19.448;2023-03-24T00:51:03;8.01;80.42
68274;SHT30;55104;47.356;19.448;2023-03-24T00:54:08;7.99;80.23
68274;SHT30;55104;47.356;19.448;2023-03-24T00:57:11;7.99;80.26
68274;SHT30;55104;47.356;19.448;2023-03-24T01:00:15;8.02;79.96
68274;SHT30;55104;47.356;19.448;2023-03-24T01:03:22;7.99;80.11
68274;SHT30;55104;47.356;19.448;2023-03-24T01:06:27;7.97;80.29
68274;SHT30;55104;47.356;19.448;2023-03-24T01:09:31;7.98;80.22
68274;SHT30;55104;47.356;19.448;2023-03-24T01:12:35;7.99;80.09
68274;SHT30;55104;47.356;19.448;2023-03-24T01:15:37;7.95;80.24
68274;SHT30;55104;47.356;19.448;2023-03-24T01:18:40;7.95;80.18
68274;SHT30;55104;47.356;19.448;2023-03-24T01:21:43;7.90;80.07
68274;SHT30;55104;47.356;19.448;2023-03-24T01:24:48;7.90;80.01
68274;SHT30;55104;47.356;19.448;2023-03-24T01:27:51;7.85;80.15
68274;SHT30;55104;47.356;19.448;2023-03-24T01:30:53;7.88;80.14
68274;SHT30;55104;47.356;19.448;2023-03-24T01:33:55;7.87;80.06
68274;SHT30;55104;47.356;19.448;2023-03-24T01:36:59;7.88;79.91
68274;SHT30;55104;47.356;19.448;2023-03-24T01:40:02;7.85;80.07
68274;SHT30;55104;47.356;19.448;2023-03-24T01:43:22;7.88;79.90
68274;SHT30;55104;47.356;19.448;2023-03-24T01:46:24;7.91;79.62
68274;SHT30;55104;47.356;19.448;2023-03-24T01:49:37;7.85;79.50
68274;SHT30;55104;47.356;19.448;2023-03-24T01:52:40;7.77;79.92
68274;SHT30;55104;47.356;19.448;2023-03-24T01:55:46;7.80;79.93
68274;SHT30;55104;47.356;19.448;2023-03-24T01:58:58;7.81;79.77
68274;SHT30;55104;47.356;19.448;2023-03-24T02:02:16;7.88;79.50
68274;SHT30;55104;47.356;19.448;2023-03-24T02:05:28;7.94;79.32
68274;SHT30;55104;47.356;19.448;2023-03-24T02:11:41;7.97;79.09
68274;SHT30;55104;47.356;19.448;2023-03-24T02:14:43;8.01;78.87
68274;SHT30;55104;47.356;19.448;2023-03-24T02:18:35;7.99;78.73
68274;SHT30;55104;47.356;19.448;2023-03-24T02:31:29;7.70;79.33
68274;SHT30;55104;47.356;19.448;2023-03-24T02:48:33;7.59;79.78
68274;SHT30;55104;47.356;19.448;2023-03-24T02:51:48;7.67;79.66
68274;SHT30;55104;47.356;19.448;2023-03-24T02:58:39;7.70;79.45
68274;SHT30;55104;47.356;19.448;2023-03-24T03:01:47;7.70;79.21
68274;SHT30;55104;47.356;19.448;2023-03-24T03:05:12;7.71;79.29
68274;SHT30;55104;47.356;19.448;2023-03-24T03:08:16;7.75;79.19
68274;SHT30;55104;47.356;19.448;2023-03-24T03:11:21;7.71;79.43
68274;SHT30;55104;47.356;19.448;2023-03-24T03:14:30;7.75;79.27
68274;SHT30;55104;47.356;19.448;2023-03-24T03:17:42;7.69;79.41
68274;SHT30;55104;47.356;19.448;2023-03-24T03:20:54;7.69;79.48
68274;SHT30;55104;47.356;19.448;2023-03-24T03:24:04;7.75;79.41
68274;SHT30;55104;47.356;19.448;2023-03-24T03:27:11;7.78;79.17
68274;SHT30;55104;47.356;19.448;2023-03-24T03:30:21;7.78;79.18
68274;SHT30;55104;47.356;19.448;2023-03-24T03:33:32;7.77;79.14
68274;SHT30;55104;47.356;19.448;2023-03-24T03:36:46;7.81;79.00
68274;SHT30;55104;47.356;19.448;2023-03-24T03:40:19;7.84;78.81
68274;SHT30;55104;47.356;19.448;2023-03-24T03:43:29;7.77;79.05
68274;SHT30;55104;47.356;19.448;2023-03-24T03:46:33;7.73;79.28
68274;SHT30;55104;47.356;19.448;2023-03-24T03:49:45;7.74;79.32
68274;SHT30;55104;47.356;19.448;2023-03-24T03:52:49;7.77;79.15
68274;SHT30;55104;47.356;19.448;2023-03-24T03:55:51;7.80;79.15
68274;SHT30;55104;47.356;19.448;2023-03-24T03:58:54;7.75;79.06
68274;SHT30;55104;47.356;19.448;2023-03-24T04:01:56;7.70;79.52
68274;SHT30;55104;47.356;19.448;2023-03-24T04:09:09;7.71;79.40
68274;SHT30;55104;47.356;19.448;2023-03-24T04:23:03;7.56;79.63
68274;SHT30;55104;47.356;19.448;2023-03-24T04:30:04;7.47;79.71
68274;SHT30;55104;47.356;19.448;2023-03-24T04:33:14;7.47;79.69
68274;SHT30;55104;47.356;19.448;2023-03-24T04:36:28;7.53;79.53
68274;SHT30;55104;47.356;19.448;2023-03-24T04:39:53;7.62;78.89
68274;SHT30;55104;47.356;19.448;2023-03-24T04:43:03;7.70;78.64
68274;SHT30;55104;47.356;19.448;2023-03-24T04:46:07;7.80;78.30
68274;SHT30;55104;47.356;19.448;2023-03-24T04:49:23;7.74;78.20
68274;SHT30;55104;47.356;19.448;2023-03-24T04:52:28;7.81;78.16
68274;SHT30;55104;47.356;19.448;2023-03-24T04:59:37;7.75;78.28
68274;SHT30;55104;47.356;19.448;2023-03-24T05:02:40;7.84;78.34
68274;SHT30;55104;47.356;19.448;2023-03-24T05:05:52;7.95;78.25
68274;SHT30;55104;47.356;19.448;2023-03-24T05:08:54;7.95;78.29
68274;SHT30;55104;47.356;19.448;2023-03-24T05:12:02;7.97;78.28
68274;SHT30;55104;47.356;19.448;2023-03-24T05:15:15;8.01;78.38
68274;SHT30;55104;47.356;19.448;2023-03-24T05:18:19;8.05;78.09
68274;SHT30;55104;47.356;19.448;2023-03-24T05:21:21;8.12;78.10
68274;SHT30;55104;47.356;19.448;2023-03-24T05:24:24;8.24;77.72
68274;SHT30;55104;47.356;19.448;2023-03-24T05:27:26;8.32;77.42
68274;SHT30;55104;47.356;19.448;2023-03-24T05:30:29;8.37;77.13
68274;SHT30;55104;47.356;19.448;2023-03-24T05:33:41;8.57;76.40
68274;SHT30;55104;47.356;19.448;2023-03-24T05:36:47;8.74;75.86
68274;SHT30;55104;47.356;19.448;2023-03-24T05:39:53;8.87;75.75
68274;SHT30;55104;47.356;19.448;2023-03-24T05:43:07;9.02;75.40
68274;SHT30;55104;47.356;19.448;2023-03-24T05:46:14;9.11;75.04
68274;SHT30;55104;47.356;19.448;2023-03-24T05:49:18;9.23;75.00
68274;SHT30;55104;47.356;19.448;2023-03-24T05:52:20;9.30;74.96
68274;SHT30;55104;47.356;19.448;2023-03-24T05:55:25;9.42;74.74
68274;SHT30;55104;47.356;19.448;2023-03-24T05:58:34;9.50;74.53
68274;SHT30;55104;47.356;19.448;2023-03-24T06:01:36;9.64;74.20
68274;SHT30;55104;47.356;19.448;2023-03-24T06:04:51;9.74;73.96
68274;SHT30;55104;47.356;19.448;2023-03-24T06:07:57;9.80;74.00
68274;SHT30;55104;47.356;19.448;2023-03-24T06:11:02;9.94;73.25
68274;SHT30;55104;47.356;19.448;2023-03-24T06:14:06;10.02;73.48
68274;SHT30;55104;47.356;19.448;2023-03-24T06:17:20;10.19;73.02
68274;SHT30;55104;47.356;19.448;2023-03-24T06:20:25;10.32;72.88
68274;SHT30;55104;47.356;19.448;2023-03-24T06:23:34;10.59;71.64
68274;SHT30;55104;47.356;19.448;2023-03-24T06:26:44;10.73;71.70
68274;SHT30;55104;47.356;19.448;2023-03-24T06:29:51;10.90;71.01
68274;SHT30;55104;47.356;19.448;2023-03-24T06:32:54;11.07;70.58
68274;SHT30;55104;47.356;19.448;2023-03-24T06:35:57;11.22;70.72
68274;SHT30;55104;47.356;19.448;2023-03-24T06:39:00;11.43;69.62
68274;SHT30;55104;47.356;19.448;2023-03-24T06:42:04;11.66;68.88
68274;SHT30;55104;47.356;19.448;2023-03-24T06:45:07;11.78;68.15
68274;SHT30;55104;47.356;19.448;2023-03-24T06:48:10;11.88;68.05
68274;SHT30;55104;47.356;19.448;2023-03-24T06:51:12;12.10;67.48
68274;SHT30;55104;47.356;19.448;2023-03-24T06:54:15;12.25;66.91
68274;SHT30;55104;47.356;19.448;2023-03-24T06:57:17;12.39;66.56
68274;SHT30;55104;47.356;19.448;2023-03-24T07:00:38;12.42;66.80
68274;SHT30;55104;47.356;19.448;2023-03-24T07:03:59;12.57;66.77
68274;SHT30;55104;47.356;19.448;2023-03-24T07:07:12;12.72;66.57
68274;SHT30;55104;47.356;19.448;2023-03-24T07:10:53;12.87;66.30
68274;SHT30;55104;47.356;19.448;2023-03-24T07:13:55;13.04;65.84
68274;SHT30;55104;47.356;19.448;2023-03-24T07:16:57;13.16;64.69
68274;SHT30;55104;47.356;19.448;2023-03-24T07:20:32;13.45;65.47
68274;SHT30;55104;47.356;19.448;2023-03-24T07:23:46;13.65;63.78
68274;SHT30;55104;47.356;19.448;2023-03-24T07:26:54;13.76;62.86
68274;SHT30;55104;47.356;19.448;2023-03-24T07:29:58;13.90;62.76
68274;SHT30;55104;47.356;19.448;2023-03-24T07:33:11;13.98;62.23
68274;SHT30;55104;47.356;19.448;2023-03-24T07:36:16;14.14;61.59
68274;SHT30;55104;47.356;19.448;2023-03-24T07:39:19;14.28;61.20
68274;SHT30;55104;47.356;19.448;2023-03-24T07:42:21;14.51;60.57
68274;SHT30;55104;47.356;19.448;2023-03-24T07:45:44;14.72;60.84
68274;SHT30;55104;47.356;19.448;2023-03-24T07:48:47;15.01;60.63
68274;SHT30;55104;47.356;19.448;2023-03-24T07:51:51;15.12;59.19
68274;SHT30;55104;47.356;19.448;2023-03-24T07:55:03;15.32;59.97
68274;SHT30;55104;47.356;19.448;2023-03-24T07:58:21;15.51;58.44
68274;SHT30;55104;47.356;19.448;2023-03-24T08:01:36;15.73;57.66
68274;SHT30;55104;47.356;19.448;2023-03-24T08:04:43;15.91;57.80
68274;SHT30;55104;47.356;19.448;2023-03-24T08:08:03;16.24;57.04
68274;SHT30;55104;47.356;19.448;2023-03-24T08:11:07;16.45;57.06
68274;SHT30;55104;47.356;19.448;2023-03-24T08:14:09;16.56;56.00
68274;SHT30;55104;47.356;19.448;2023-03-24T08:17:11;16.44;55.16
68274;SHT30;55104;47.356;19.448;2023-03-24T08:20:14;16.40;55.23
68274;SHT30;55104;47.356;19.448;2023-03-24T08:23:19;16.55;54.68
68274;SHT30;55104;47.356;19.448;2023-03-24T08:26:21;16.72;54.95
68274;SHT30;55104;47.356;19.448;2023-03-24T08:29:27;16.87;53.39
68274;SHT30;55104;47.356;19.448;2023-03-24T08:32:29;17.04;53.18
68274;SHT30;55104;47.356;19.448;2023-03-24T08:35:33;17.32;53.58
68274;SHT30;55104;47.356;19.448;2023-03-24T08:38:39;17.71;53.16
68274;SHT30;55104;47.356;19.448;2023-03-24T08:41:42;17.81;51.49
68274;SHT30;55104;47.356;19.448;2023-03-24T08:44:44;17.86;51.48
68274;SHT30;55104;47.356;19.448;2023-03-24T08:47:47;18.10;51.23
68274;SHT30;55104;47.356;19.448;2023-03-24T08:50:51;18.36;51.97
68274;SHT30;55104;47.356;19.448;2023-03-24T08:53:53;18.79;49.67
68274;SHT30;55104;47.356;19.448;2023-03-24T08:56:56;19.10;48.26
68274;SHT30;55104;47.356;19.448;2023-03-24T08:59:58;19.48;45.65
68274;SHT30;55104;47.356;19.448;2023-03-24T09:03:00;19.69;44.96
68274;SHT30;55104;47.356;19.448;2023-03-24T09:06:02;19.72;43.67
68274;SHT30;55104;47.356;19.448;2023-03-24T09:09:05;19.74;43.76
68274;SHT30;55104;47.356;19.448;2023-03-24T09:12:08;19.82;43.72
68274;SHT30;55104;47.356;19.448;2023-03-24T09:15:12;19.75;44.04
68274;SHT30;55104;47.356;19.448;2023-03-24T09:18:16;19.66;44.09
68274;SHT30;55104;47.356;19.448;2023-03-24T09:21:19;19.72;45.26
68274;SHT30;55104;47.356;19.448;2023-03-24T09:24:21;19.85;45.06
68274;SHT30;55104;47.356;19.448;2023-03-24T09:27:23;19.95;43.44
68274;SHT30;55104;47.356;19.448;2023-03-24T09:30:25;19.86;43.82
68274;SHT30;55104;47.356;19.448;2023-03-24T09:33:30;20.08;42.83
68274;SHT30;55104;47.356;19.448;2023-03-24T09:36:33;20.09;43.30
68274;SHT30;55104;47.356;19.448;2023-03-24T09:39:35;20.19;43.92
68274;SHT30;55104;47.356;19.448;2023-03-24T09:42:39;20.37;44.26
68274;SHT30;55104;47.356;19.448;2023-03-24T09:45:47;20.34;42.95
68274;SHT30;55104;47.356;19.448;2023-03-24T09:48:54;20.19;42.97
68274;SHT30;55104;47.356;19.448;2023-03-24T09:52:09;20.30;43.21
68274;SHT30;55104;47.356;19.448;2023-03-24T09:55:19;20.43;42.72
68274;SHT30;55104;47.356;19.448;2023-03-24T09:58:31;20.21;43.56
68274;SHT30;55104;47.356;19.448;2023-03-24T10:01:34;20.37;43.49
68274;SHT30;55104;47.356;19.448;2023-03-24T10:04:37;20.40;43.55
68274;SHT30;55104;47.356;19.448;2023-03-24T10:07:49;20.75;43.48
68274;SHT30;55104;47.356;19.448;2023-03-24T10:11:05;20.84;42.60
68274;SHT30;55104;47.356;19.448;2023-03-24T10:20:54;20.76;42.36
68274;SHT30;55104;47.356;19.448;2023-03-24T10:24:14;20.93;41.30
68274;SHT30;55104;47.356;19.448;2023-03-24T10:27:26;21.10;42.05
68274;SHT30;55104;47.356;19.448;2023-03-24T10:30:34;21.24;41.22
68274;SHT30;55104;47.356;19.448;2023-03-24T10:33:43;21.30;42.17
68274;SHT30;55104;47.356;19.448;2023-03-24T10:36:45;21.46;41.50
68274;SHT30;55104;47.356;19.448;2023-03-24T10:39:48;21.05;41.86
68274;SHT30;55104;47.356;19.448;2023-03-24T10:42:50;21.10;41.96
68274;SHT30;55104;47.356;19.448;2023-03-24T10:46:13;21.39;42.47
68274;SHT30;55104;47.356;19.448;2023-03-24T10:49:19;21.62;41.31
68274;SHT30;55104;47.356;19.448;2023-03-24T10:52:21;21.65;41.58
68274;SHT30;55104;47.356;19.448;2023-03-24T10:55:30;21.86;41.21
68274;SHT30;55104;47.356;19.448;2023-03-24T10:58:39;21.98;40.54
68274;SHT30;55104;47.356;19.448;2023-03-24T11:01:41;21.98;40.04
68274;SHT30;55104;47.356;19.448;2023-03-24T11:04:51;21.89;41.66
68274;SHT30;55104;47.356;19.448;2023-03-24T11:07:56;22.24;40.63
68274;SHT30;55104;47.356;19.448;2023-03-24T11:11:00;22.03;40.44
68274;SHT30;55104;47.356;19.448;2023-03-24T11:14:02;22.03;40.51
68274;SHT30;55104;47.356;19.448;2023-03-24T11:17:13;21.95;39.79
68274;SHT30;55104;47.356;19.448;2023-03-24T11:20:39;22.28;38.80
68274;SHT30;55104;47.356;19.448;2023-03-24T11:23:42;22.05;38.70
68274;SHT30;55104;47.356;19.448;2023-03-24T11:29:53;22.57;38.40
68274;SHT30;55104;47.356;19.448;2023-03-24T11:32:57;22.91;37.37
68274;SHT30;55104;47.356;19.448;2023-03-24T11:36:32;22.98;37.35
68274;SHT30;55104;47.356;19.448;2023-03-24T11:39:30;23.02;36.23
68274;SHT30;55104;47.356;19.448;2023-03-24T11:42:57;22.98;37.33
68274;SHT30;55104;47.356;19.448;2023-03-24T11:46:06;23.12;37.08
68274;SHT30;55104;47.356;19.448;2023-03-24T11:49:11;23.11;37.20
68274;SHT30;55104;47.356;19.448;2023-03-24T11:52:36;23.16;36.40
68274;SHT30;55104;47.356;19.448;2023-03-24T12:02:43;23.18;36.28
68274;SHT30;55104;47.356;19.448;2023-03-24T12:26:14;23.63;36.07
68274;SHT30;55104;47.356;19.448;2023-03-24T12:29:37;23.54;35.82
68274;SHT30;55104;47.356;19.448;2023-03-24T12:32:58;23.56;35.91
68274;SHT30;55104;47.356;19.448;2023-03-24T12:40:23;23.79;35.96
68274;SHT30;55104;47.356;19.448;2023-03-24T12:56:42;23.63;36.09
68274;SHT30;55104;47.356;19.448;2023-03-24T13:02:56;23.61;35.56
68274;SHT30;55104;47.356;19.448;2023-03-24T13:06:10;23.85;34.79
68274;SHT30;55104;47.356;19.448;2023-03-24T13:12:37;24.00;34.24
68274;SHT30;55104;47.356;19.448;2023-03-24T13:15:48;23.98;34.59
68274;SHT30;55104;47.356;19.448;2023-03-24T13:18:54;23.89;34.78
68274;SHT30;55104;47.356;19.448;2023-03-24T13:21:57;24.06;35.54
68274;SHT30;55104;47.356;19.448;2023-03-24T13:25:00;23.94;35.23
68274;SHT30;55104;47.356;19.448;2023-03-24T13:28:07;23.39;36.21
68274;SHT30;55104;47.356;19.448;2023-03-24T13:31:13;23.05;37.20
68274;SHT30;55104;47.356;19.448;2023-03-24T13:34:28;22.75;37.80
68274;SHT30;55104;47.356;19.448;2023-03-24T13:37:38;22.84;37.28
68274;SHT30;55104;47.356;19.448;2023-03-24T13:40:45;22.75;37.74
68274;SHT30;55104;47.356;19.448;2023-03-24T13:43:50;22.75;37.87
68274;SHT30;55104;47.356;19.448;2023-03-24T13:47:15;22.84;37.00
68274;SHT30;55104;47.356;19.448;2023-03-24T13:50:17;23.13;37.13
68274;SHT30;55104;47.356;19.448;2023-03-24T13:57:14;23.49;37.17
68274;SHT30;55104;47.356;19.448;2023-03-24T14:00:20;23.68;36.22
68274;SHT30;55104;47.356;19.448;2023-03-24T14:03:43;23.46;36.44
68274;SHT30;55104;47.356;19.448;2023-03-24T14:06:56;23.51;36.56
68274;SHT30;55104;47.356;19.448;2023-03-24T14:13:36;23.20;37.18
68274;SHT30;55104;47.356;19.448;2023-03-24T14:17:01;23.19;37.11
68274;SHT30;55104;47.356;19.448;2023-03-24T14:20:11;23.09;37.31
68274;SHT30;55104;47.356;19.448;2023-03-24T14:23:37;23.16;37.58
68274;SHT30;55104;47.356;19.448;2023-03-24T14:26:41;23.30;36.90
68274;SHT30;55104;47.356;19.448;2023-03-24T14:29:49;23.64;36.36
68274;SHT30;55104;47.356;19.448;2023-03-24T14:32:56;23.38;36.95
68274;SHT30;55104;47.356;19.448;2023-03-24T14:36:03;23.53;36.47
68274;SHT30;55104;47.356;19.448;2023-03-24T14:39:35;23.40;36.65
68274;SHT30;55104;47.356;19.448;2023-03-24T14:45:59;23.18;36.52
68274;SHT30;55104;47.356;19.448;2023-03-24T14:49:16;23.19;36.72
68274;SHT30;55104;47.356;19.448;2023-03-24T14:55:26;23.32;36.86
68274;SHT30;55104;47.356;19.448;2023-03-24T14:58:35;23.38;35.69
68274;SHT30;55104;47.356;19.448;2023-03-24T15:01:40;23.08;35.42
68274;SHT30;55104;47.356;19.448;2023-03-24T15:08:26;22.64;36.27
68274;SHT30;55104;47.356;19.448;2023-03-24T15:11:33;22.50;36.68
68274;SHT30;55104;47.356;19.448;2023-03-24T15:14:35;22.30;37.02
68274;SHT30;55104;47.356;19.448;2023-03-24T15:17:41;22.03;37.67
68274;SHT30;55104;47.356;19.448;2023-03-24T15:20:48;21.95;37.89
68274;SHT30;55104;47.356;19.448;2023-03-24T15:23:51;21.86;38.37
68274;SHT30;55104;47.356;19.448;2023-03-24T15:26:55;21.81;38.46
68274;SHT30;55104;47.356;19.448;2023-03-24T15:30:14;21.69;38.87
68274;SHT30;55104;47.356;19.448;2023-03-24T15:33:17;21.69;39.10
68274;SHT30;55104;47.356;19.448;2023-03-24T15:36:21;21.62;38.97
68274;SHT30;55104;47.356;19.448;2023-03-24T15:39:26;21.61;39.34
68274;SHT30;55104;47.356;19.448;2023-03-24T15:42:29;21.53;39.59
68274;SHT30;55104;47.356;19.448;2023-03-24T15:45:43;21.40;39.45
68274;SHT30;55104;47.356;19.448;2023-03-24T15:48:55;21.29;40.05
68274;SHT30;55104;47.356;19.448;2023-03-24T15:52:00;21.18;40.65
68274;SHT30;55104;47.356;19.448;2023-03-24T15:58:28;20.93;40.33
68274;SHT30;55104;47.356;19.448;2023-03-24T16:01:33;20.91;40.05
68274;SHT30;55104;47.356;19.448;2023-03-24T16:04:39;20.79;40.20
68274;SHT30;55104;47.356;19.448;2023-03-24T16:07:42;20.75;40.25
68274;SHT30;55104;47.356;19.448;2023-03-24T16:11:01;20.67;40.63
68274;SHT30;55104;47.356;19.448;2023-03-24T16:14:26;20.52;41.06
68274;SHT30;55104;47.356;19.448;2023-03-24T16:17:28;20.50;41.08
68274;SHT30;55104;47.356;19.448;2023-03-24T16:20:30;20.33;41.65
68274;SHT30;55104;47.356;19.448;2023-03-24T16:23:32;20.23;42.10
68274;SHT30;55104;47.356;19.448;2023-03-24T16:26:34;20.12;42.19
68274;SHT30;55104;47.356;19.448;2023-03-24T16:29:36;20.12;42.19
68274;SHT30;55104;47.356;19.448;2023-03-24T16:32:39;19.96;43.06
68274;SHT30;55104;47.356;19.448;2023-03-24T16:35:41;19.75;43.42
68274;SHT30;55104;47.356;19.448;2023-03-24T16:38:44;19.68;43.71
68274;SHT30;55104;47.356;19.448;2023-03-24T16:41:46;19.54;44.01
68274;SHT30;55104;47.356;19.448;2023-03-24T16:44:49;19.37;44.31
68274;SHT30;55104;47.356;19.448;2023-03-24T16:47:51;19.20;44.68
68274;SHT30;55104;47.356;19.448;2023-03-24T16:50:53;19.00;44.89
68274;SHT30;55104;47.356;19.448;2023-03-24T16:53:57;18.91;45.07
68274;SHT30;55104;47.356;19.448;2023-03-24T16:56:58;18.75;45.39
68274;SHT30;55104;47.356;19.448;2023-03-24T17:00:01;18.64;45.83
68274;SHT30;55104;47.356;19.448;2023-03-24T17:03:11;18.44;46.35
68274;SHT30;55104;47.356;19.448;2023-03-24T17:06:15;18.31;46.74
68274;SHT30;55104;47.356;19.448;2023-03-24T17:09:17;18.13;47.54
68274;SHT30;55104;47.356;19.448;2023-03-24T17:12:22;17.93;48.02
68274;SHT30;55104;47.356;19.448;2023-03-24T17:15:26;17.78;48.89
68274;SHT30;55104;47.356;19.448;2023-03-24T17:18:29;17.62;48.73
68274;SHT30;55104;47.356;19.448;2023-03-24T17:21:33;17.41;49.63
68274;SHT30;55104;47.356;19.448;2023-03-24T17:24:37;17.31;49.81
68274;SHT30;55104;47.356;19.448;2023-03-24T17:27:43;17.20;50.27
68274;SHT30;55104;47.356;19.448;2023-03-24T17:30:48;17.04;50.95
68274;SHT30;55104;47.356;19.448;2023-03-24T17:33:51;16.97;51.35
68274;SHT30;55104;47.356;19.448;2023-03-24T17:36:53;16.84;51.56
68274;SHT30;55104;47.356;19.448;2023-03-24T17:39:56;16.76;51.92
68274;SHT30;55104;47.356;19.448;2023-03-24T17:42:58;16.69;51.96
68274;SHT30;55104;47.356;19.448;2023-03-24T17:46:01;16.59;52.36
68274;SHT30;55104;47.356;19.448;2023-03-24T17:49:03;16.44;52.87
68274;SHT30;55104;47.356;19.448;2023-03-24T17:52:06;16.34;53.62
68274;SHT30;55104;47.356;19.448;2023-03-24T17:55:09;16.25;55.33
68274;SHT30;55104;47.356;19.448;2023-03-24T17:58:12;16.20;55.72
68274;SHT30;55104;47.356;19.448;2023-03-24T18:01:14;16.08;56.48
68274;SHT30;55104;47.356;19.448;2023-03-24T18:04:19;15.93;56.88
68274;SHT30;55104;47.356;19.448;2023-03-24T18:07:22;15.74;58.53
68274;SHT30;55104;47.356;19.448;2023-03-24T18:10:25;15.65;58.35
68274;SHT30;55104;47.356;19.448;2023-03-24T18:13:27;15.56;58.38
68274;SHT30;55104;47.356;19.448;2023-03-24T18:16:29;15.51;58.59
68274;SHT30;55104;47.356;19.448;2023-03-24T18:19:31;15.51;58.51
68274;SHT30;55104;47.356;19.448;2023-03-24T18:22:34;15.46;59.01
68274;SHT30;55104;47.356;19.448;2023-03-24T18:25:36;15.41;59.03
68274;SHT30;55104;47.356;19.448;2023-03-24T18:28:38;15.31;59.87
68274;SHT30;55104;47.356;19.448;2023-03-24T18:31:40;15.25;59.80
68274;SHT30;55104;47.356;19.448;2023-03-24T18:34:42;15.08;60.11
68274;SHT30;55104;47.356;19.448;2023-03-24T18:37:45;14.96;60.58
68274;SHT30;55104;47.356;19.448;2023-03-24T18:43:59;14.70;61.00
68274;SHT30;55104;47.356;19.448;2023-03-24T18:47:03;14.61;61.76
68274;SHT30;55104;47.356;19.448;2023-03-24T18:50:05;14.55;61.59
68274;SHT30;55104;47.356;19.448;2023-03-24T18:53:08;14.46;61.81
68274;SHT30;55104;47.356;19.448;2023-03-24T18:56:10;14.35;62.02
68274;SHT30;55104;47.356;19.448;2023-03-24T18:59:12;14.25;62.14
68274;SHT30;55104;47.356;19.448;2023-03-24T19:02:15;14.18;62.78
68274;SHT30;55104;47.356;19.448;2023-03-24T19:05:17;14.06;63.60
68274;SHT30;55104;47.356;19.448;2023-03-24T19:08:20;14.01;63.97
68274;SHT30;55104;47.356;19.448;2023-03-24T19:11:22;13.93;63.79
68274;SHT30;55104;47.356;19.448;2023-03-24T19:14:25;13.91;64.11
68274;SHT30;55104;47.356;19.448;2023-03-24T19:17:27;13.83;64.84
68274;SHT30;55104;47.356;19.448;2023-03-24T19:20:29;13.84;64.52
68274;SHT30;55104;47.356;19.448;2023-03-24T19:23:32;13.93;64.84
68274;SHT30;55104;47.356;19.448;2023-03-24T19:26:34;13.94;64.64
68274;SHT30;55104;47.356;19.448;2023-03-24T19:29:36;14.03;63.94
68274;SHT30;55104;47.356;19.448;2023-03-24T19:32:38;14.06;62.85
68274;SHT30;55104;47.356;19.448;2023-03-24T19:35:41;14.08;62.62
68274;SHT30;55104;47.356;19.448;2023-03-24T19:38:43;14.11;63.17
68274;SHT30;55104;47.356;19.448;2023-03-24T19:41:45;14.13;63.43
68274;SHT30;55104;47.356;19.448;2023-03-24T19:44:47;14.10;62.73
68274;SHT30;55104;47.356;19.448;2023-03-24T19:47:49;14.08;62.73
68274;SHT30;55104;47.356;19.448;2023-03-24T19:50:52;14.04;62.37
68274;SHT30;55104;47.356;19.448;2023-03-24T19:53:55;14.04;62.92
68274;SHT30;55104;47.356;19.448;2023-03-24T19:56:57;14.07;63.03
68274;SHT30;55104;47.356;19.448;2023-03-24T19:59:59;13.94;63.54
68274;SHT30;55104;47.356;19.448;2023-03-24T20:03:01;13.89;63.78
68274;SHT30;55104;47.356;19.448;2023-03-24T20:06:05;13.76;64.33
68274;SHT30;55104;47.356;19.448;2023-03-24T20:09:09;13.65;64.50
68274;SHT30;55104;47.356;19.448;2023-03-24T20:12:12;13.59;65.02
68274;SHT30;55104;47.356;19.448;2023-03-24T20:15:14;13.48;65.85
68274;SHT30;55104;47.356;19.448;2023-03-24T20:18:16;13.39;66.10
68274;SHT30;55104;47.356;19.448;2023-03-24T20:21:19;13.25;66.28
68274;SHT30;55104;47.356;19.448;2023-03-24T20:24:23;13.15;67.28
68274;SHT30;55104;47.356;19.448;2023-03-24T20:27:25;13.04;67.01
68274;SHT30;55104;47.356;19.448;2023-03-24T20:30:27;12.90;67.50
68274;SHT30;55104;47.356;19.448;2023-03-24T20:33:31;12.80;68.36
68274;SHT30;55104;47.356;19.448;2023-03-24T20:36:34;12.73;68.20
68274;SHT30;55104;47.356;19.448;2023-03-24T20:39:39;12.66;68.35
68274;SHT30;55104;47.356;19.448;2023-03-24T20:42:44;12.53;68.53
68274;SHT30;55104;47.356;19.448;2023-03-24T20:45:46;12.46;69.19
68274;SHT30;55104;47.356;19.448;2023-03-24T20:48:49;12.43;69.16
68274;SHT30;55104;47.356;19.448;2023-03-24T20:51:51;12.38;69.42
68274;SHT30;55104;47.356;19.448;2023-03-24T20:54:54;12.38;69.40
68274;SHT30;55104;47.356;19.448;2023-03-24T20:57:56;12.36;69.14
68274;SHT30;55104;47.356;19.448;2023-03-24T21:00:58;12.43;68.73
68274;SHT30;55104;47.356;19.448;2023-03-24T21:04:02;12.43;68.81
68274;SHT30;55104;47.356;19.448;2023-03-24T21:07:10;12.43;68.76
68274;SHT30;55104;47.356;19.448;2023-03-24T21:10:12;12.39;68.86
68274;SHT30;55104;47.356;19.448;2023-03-24T21:13:15;12.48;68.32
68274;SHT30;55104;47.356;19.448;2023-03-24T21:16:18;12.50;68.10
68274;SHT30;55104;47.356;19.448;2023-03-24T21:19:20;12.53;68.38
68274;SHT30;55104;47.356;19.448;2023-03-24T21:22:23;12.55;68.68
68274;SHT30;55104;47.356;19.448;2023-03-24T21:25:31;12.56;68.40
68274;SHT30;55104;47.356;19.448;2023-03-24T21:28:34;12.60;68.71
68274;SHT30;55104;47.356;19.448;2023-03-24T21:31:36;12.69;68.99
68274;SHT30;55104;47.356;19.448;2023-03-24T21:34:38;12.79;68.62
68274;SHT30;55104;47.356;19.448;2023-03-24T21:37:41;12.87;67.31
68274;SHT30;55104;47.356;19.448;2023-03-24T21:40:55;13.00;68.08
68274;SHT30;55104;47.356;19.448;2023-03-24T21:43:58;13.01;67.76